sensor_id;sensor_type;location;lat;lon;timestamp;P1;durP1;ratioP1;P2;durP2;ratioP2
20290;SDS011;10304;51.074;13.754;2023-11-19T00:00:59;13.07;;;9.88;;
20290;SDS011;10304;51.074;13.754;2023-11-19T00:03:27;14.55;;;9.93;;
20290;SDS011;10304;51.074;13.754;2023-11-19T00:05:54;13.60;;;10.35;;
20290;SDS011;10304;51.074;13.754;2023-11-19T00:08:22;11.38;;;8.85;;
20290;SDS011;10304;51.074;13.754;2023-11-19T00:10:51;11.88;;;9.23;;
20290;SDS011;10304;51.074;13.754;2023-11-19T00:13:18;13.27;;;9.02;;
20290;SDS011;10304;51.074;13.754;2023-11-19T00:15:44;14.00;;;10.35;;
20290;SDS011;10304;51.074;13.754;2023-11-19T00:18:11;14.13;;;10.10;;
20290;SDS011;10304;51.074;13.754;2023-11-19T00:20:38;14.93;;;9.82;;
20290;SDS011;10304;51.074;13.754;2023-11-19T00:23:05;12.70;;;9.20;;
20290;SDS011;10304;51.074;13.754;2023-11-19T00:25:32;14.05;;;10.05;;
20290;SDS011;10304;51.074;13.754;2023-11-19T00:27:59;14.27;;;10.45;;
20290;SDS011;10304;51.074;13.754;2023-11-19T00:30:26;26.27;;;17.02;;
20290;SDS011;10304;51.074;13.754;2023-11-19T00:32:53;13.82;;;10.05;;
20290;SDS011;10304;51.074;13.754;2023-11-19T00:35:20;13.48;;;9.77;;
20290;SDS011;10304;51.074;13.754;2023-11-19T00:37:46;13.60;;;10.13;;
20290;SDS011;10304;51.074;13.754;2023-11-19T00:40:14;15.90;;;10.23;;
20290;SDS011;10304;51.074;13.754;2023-11-19T00:42:42;13.88;;;10.32;;
20290;SDS011;10304;51.074;13.754;2023-11-19T00:45:09;12.20;;;9.32;;
20290;SDS011;10304;51.074;13.754;2023-11-19T00:47:37;12.05;;;9.27;;
20290;SDS011;10304;51.074;13.754;2023-11-19T00:50:04;12.82;;;9.18;;
20290;SDS011;10304;51.074;13.754;2023-11-19T00:52:31;13.27;;;9.60;;
20290;SDS011;10304;51.074;13.754;2023-11-19T00:54:58;12.38;;;9.32;;
20290;SDS011;10304;51.074;13.754;2023-11-19T00:57:25;12.27;;;8.77;;
20290;SDS011;10304;51.074;13.754;2023-11-19T00:59:53;14.45;;;9.20;;
20290;SDS011;10304;51.074;13.754;2023-11-19T01:02:19;12.52;;;9.00;;
20290;SDS011;10304;51.074;13.754;2023-11-19T01:04:47;11.15;;;8.77;;
20290;SDS011;10304;51.074;13.754;2023-11-19T01:07:14;12.18;;;8.93;;
20290;SDS011;10304;51.074;13.754;2023-11-19T01:09:44;10.07;;;8.00;;
20290;SDS011;10304;51.074;13.754;2023-11-19T01:12:11;10.75;;;7.97;;
20290;SDS011;10304;51.074;13.754;2023-11-19T01:14:37;10.90;;;8.45;;
20290;SDS011;10304;51.074;13.754;2023-11-19T01:17:04;11.10;;;7.97;;
20290;SDS011;10304;51.074;13.754;2023-11-19T01:19:32;9.70;;;7.70;;
20290;SDS011;10304;51.074;13.754;2023-11-19T01:21:59;10.00;;;7.35;;
20290;SDS011;10304;51.074;13.754;2023-11-19T01:24:26;8.95;;;7.05;;
20290;SDS011;10304;51.074;13.754;2023-11-19T01:26:55;9.05;;;6.88;;
20290;SDS011;10304;51.074;13.754;2023-11-19T01:29:26;9.30;;;6.75;;
20290;SDS011;10304;51.074;13.754;2023-11-19T01:31:53;9.32;;;6.97;;
20290;SDS011;10304;51.074;13.754;2023-11-19T01:34:26;8.10;;;6.70;;
20290;SDS011;10304;51.074;13.754;2023-11-19T01:37:02;7.78;;;6.05;;
20290;SDS011;10304;51.074;13.754;2023-11-19T01:39:33;7.65;;;5.88;;
20290;SDS011;10304;51.074;13.754;2023-11-19T01:42:24;7.38;;;5.57;;
20290;SDS011;10304;51.074;13.754;2023-11-19T01:45:00;7.75;;;6.00;;
20290;SDS011;10304;51.074;13.754;2023-11-19T01:47:43;7.22;;;5.50;;
20290;SDS011;10304;51.074;13.754;2023-11-19T01:50:17;9.18;;;5.80;;
20290;SDS011;10304;51.074;13.754;2023-11-19T01:52:47;6.55;;;4.72;;
20290;SDS011;10304;51.074;13.754;2023-11-19T01:55:33;6.65;;;5.32;;
20290;SDS011;10304;51.074;13.754;2023-11-19T01:58:18;6.00;;;4.65;;
20290;SDS011;10304;51.074;13.754;2023-11-19T02:00:55;5.68;;;4.28;;
20290;SDS011;10304;51.074;13.754;2023-11-19T02:03:33;5.22;;;4.45;;
20290;SDS011;10304;51.074;13.754;2023-11-19T02:06:11;4.82;;;3.75;;
20290;SDS011;10304;51.074;13.754;2023-11-19T02:08:42;4.80;;;4.07;;
20290;SDS011;10304;51.074;13.754;2023-11-19T02:11:29;4.97;;;3.97;;
20290;SDS011;10304;51.074;13.754;2023-11-19T02:14:02;5.15;;;3.90;;
20290;SDS011;10304;51.074;13.754;2023-11-19T02:16:40;4.07;;;3.40;;
20290;SDS011;10304;51.074;13.754;2023-11-19T02:19:09;4.57;;;3.55;;
20290;SDS011;10304;51.074;13.754;2023-11-19T02:21:37;3.60;;;3.22;;
20290;SDS011;10304;51.074;13.754;2023-11-19T02:24:05;4.70;;;3.50;;
20290;SDS011;10304;51.074;13.754;2023-11-19T02:29:16;4.45;;;3.30;;
20290;SDS011;10304;51.074;13.754;2023-11-19T02:31:43;3.60;;;2.90;;
20290;SDS011;10304;51.074;13.754;2023-11-19T02:34:10;3.17;;;2.80;;
20290;SDS011;10304;51.074;13.754;2023-11-19T02:36:39;3.40;;;3.10;;
20290;SDS011;10304;51.074;13.754;2023-11-19T02:39:08;3.50;;;3.00;;
20290;SDS011;10304;51.074;13.754;2023-11-19T02:41:38;3.83;;;2.90;;
20290;SDS011;10304;51.074;13.754;2023-11-19T02:44:06;3.88;;;2.97;;
20290;SDS011;10304;51.074;13.754;2023-11-19T02:46:33;3.42;;;2.70;;
20290;SDS011;10304;51.074;13.754;2023-11-19T02:49:00;3.10;;;2.80;;
20290;SDS011;10304;51.074;13.754;2023-11-19T02:51:29;3.85;;;2.80;;
20290;SDS011;10304;51.074;13.754;2023-11-19T02:53:56;3.45;;;2.88;;
20290;SDS011;10304;51.074;13.754;2023-11-19T02:56:24;3.58;;;2.90;;
20290;SDS011;10304;51.074;13.754;2023-11-19T02:58:52;4.30;;;3.25;;
20290;SDS011;10304;51.074;13.754;2023-11-19T03:01:24;3.95;;;2.90;;
20290;SDS011;10304;51.074;13.754;2023-11-19T03:03:57;3.13;;;2.53;;
20290;SDS011;10304;51.074;13.754;2023-11-19T03:06:25;3.17;;;2.53;;
20290;SDS011;10304;51.074;13.754;2023-11-19T03:08:54;3.85;;;2.65;;
20290;SDS011;10304;51.074;13.754;2023-11-19T03:11:21;3.55;;;2.40;;
20290;SDS011;10304;51.074;13.754;2023-11-19T03:13:48;3.78;;;2.45;;
20290;SDS011;10304;51.074;13.754;2023-11-19T03:16:15;3.83;;;2.75;;
20290;SDS011;10304;51.074;13.754;2023-11-19T03:18:43;3.75;;;2.60;;
20290;SDS011;10304;51.074;13.754;2023-11-19T03:21:11;3.45;;;2.35;;
20290;SDS011;10304;51.074;13.754;2023-11-19T03:23:39;2.45;;;2.20;;
20290;SDS011;10304;51.074;13.754;2023-11-19T03:26:07;2.97;;;2.25;;
20290;SDS011;10304;51.074;13.754;2023-11-19T03:28:35;3.53;;;2.58;;
20290;SDS011;10304;51.074;13.754;2023-11-19T03:31:05;3.83;;;2.63;;
20290;SDS011;10304;51.074;13.754;2023-11-19T03:33:35;3.42;;;2.42;;
20290;SDS011;10304;51.074;13.754;2023-11-19T03:36:04;2.63;;;2.30;;
20290;SDS011;10304;51.074;13.754;2023-11-19T03:38:32;3.15;;;1.95;;
20290;SDS011;10304;51.074;13.754;2023-11-19T03:40:59;3.00;;;2.40;;
20290;SDS011;10304;51.074;13.754;2023-11-19T03:43:26;3.63;;;2.75;;
20290;SDS011;10304;51.074;13.754;2023-11-19T03:45:53;3.05;;;2.75;;
20290;SDS011;10304;51.074;13.754;2023-11-19T03:48:21;2.92;;;2.08;;
20290;SDS011;10304;51.074;13.754;2023-11-19T03:50:49;4.07;;;1.95;;
20290;SDS011;10304;51.074;13.754;2023-11-19T03:53:15;4.32;;;2.10;;
20290;SDS011;10304;51.074;13.754;2023-11-19T03:55:42;2.42;;;2.05;;
20290;SDS011;10304;51.074;13.754;2023-11-19T03:58:09;2.55;;;2.05;;
20290;SDS011;10304;51.074;13.754;2023-11-19T04:00:36;3.42;;;2.47;;
20290;SDS011;10304;51.074;13.754;2023-11-19T04:03:03;3.38;;;2.47;;
20290;SDS011;10304;51.074;13.754;2023-11-19T04:05:31;3.13;;;2.40;;
20290;SDS011;10304;51.074;13.754;2023-11-19T04:07:58;2.95;;;2.65;;
20290;SDS011;10304;51.074;13.754;2023-11-19T04:10:24;3.75;;;2.90;;
20290;SDS011;10304;51.074;13.754;2023-11-19T04:12:53;3.25;;;2.95;;
20290;SDS011;10304;51.074;13.754;2023-11-19T04:15:20;5.03;;;3.33;;
20290;SDS011;10304;51.074;13.754;2023-11-19T04:17:48;3.60;;;3.00;;
20290;SDS011;10304;51.074;13.754;2023-11-19T04:20:15;5.80;;;3.63;;
20290;SDS011;10304;51.074;13.754;2023-11-19T04:22:42;3.42;;;3.03;;
20290;SDS011;10304;51.074;13.754;2023-11-19T04:25:09;4.63;;;3.63;;
20290;SDS011;10304;51.074;13.754;2023-11-19T04:27:37;3.97;;;3.47;;
20290;SDS011;10304;51.074;13.754;2023-11-19T04:30:04;4.95;;;3.83;;
20290;SDS011;10304;51.074;13.754;2023-11-19T04:32:36;5.45;;;3.72;;
20290;SDS011;10304;51.074;13.754;2023-11-19T04:35:04;5.85;;;4.03;;
20290;SDS011;10304;51.074;13.754;2023-11-19T04:37:31;5.20;;;3.90;;
20290;SDS011;10304;51.074;13.754;2023-11-19T04:39:58;6.45;;;3.80;;
20290;SDS011;10304;51.074;13.754;2023-11-19T04:42:26;5.55;;;4.57;;
20290;SDS011;10304;51.074;13.754;2023-11-19T04:44:53;5.38;;;4.25;;
20290;SDS011;10304;51.074;13.754;2023-11-19T04:47:20;5.32;;;3.90;;
20290;SDS011;10304;51.074;13.754;2023-11-19T04:49:47;4.50;;;3.63;;
20290;SDS011;10304;51.074;13.754;2023-11-19T04:52:14;4.78;;;3.55;;
20290;SDS011;10304;51.074;13.754;2023-11-19T04:54:41;6.50;;;4.45;;
20290;SDS011;10304;51.074;13.754;2023-11-19T04:57:11;5.05;;;4.20;;
20290;SDS011;10304;51.074;13.754;2023-11-19T04:59:38;4.97;;;3.97;;
20290;SDS011;10304;51.074;13.754;2023-11-19T05:02:05;4.82;;;4.03;;
20290;SDS011;10304;51.074;13.754;2023-11-19T05:04:32;6.03;;;4.30;;
20290;SDS011;10304;51.074;13.754;2023-11-19T05:06:59;5.28;;;4.47;;
20290;SDS011;10304;51.074;13.754;2023-11-19T05:09:26;6.68;;;4.50;;
20290;SDS011;10304;51.074;13.754;2023-11-19T05:11:53;6.07;;;4.45;;
20290;SDS011;10304;51.074;13.754;2023-11-19T05:14:21;5.38;;;4.25;;
20290;SDS011;10304;51.074;13.754;2023-11-19T05:16:48;6.63;;;5.03;;
20290;SDS011;10304;51.074;13.754;2023-11-19T05:19:15;5.72;;;4.47;;
20290;SDS011;10304;51.074;13.754;2023-11-19T05:21:42;6.22;;;5.00;;
20290;SDS011;10304;51.074;13.754;2023-11-19T05:24:10;5.65;;;4.80;;
20290;SDS011;10304;51.074;13.754;2023-11-19T05:26:38;5.68;;;4.75;;
20290;SDS011;10304;51.074;13.754;2023-11-19T05:29:05;10.05;;;5.35;;
20290;SDS011;10304;51.074;13.754;2023-11-19T05:31:32;7.07;;;5.88;;
20290;SDS011;10304;51.074;13.754;2023-11-19T05:34:02;6.00;;;5.40;;
20290;SDS011;10304;51.074;13.754;2023-11-19T05:36:30;6.88;;;5.80;;
20290;SDS011;10304;51.074;13.754;2023-11-19T05:38:57;8.80;;;6.32;;
20290;SDS011;10304;51.074;13.754;2023-11-19T05:41:24;7.30;;;6.13;;
20290;SDS011;10304;51.074;13.754;2023-11-19T05:43:51;7.05;;;5.97;;
20290;SDS011;10304;51.074;13.754;2023-11-19T05:46:18;7.30;;;5.88;;
20290;SDS011;10304;51.074;13.754;2023-11-19T05:48:46;7.63;;;6.05;;
20290;SDS011;10304;51.074;13.754;2023-11-19T05:51:14;7.30;;;5.97;;
20290;SDS011;10304;51.074;13.754;2023-11-19T05:53:42;10.63;;;6.88;;
20290;SDS011;10304;51.074;13.754;2023-11-19T05:56:10;9.50;;;6.97;;
20290;SDS011;10304;51.074;13.754;2023-11-19T05:58:37;8.02;;;6.78;;
20290;SDS011;10304;51.074;13.754;2023-11-19T06:01:05;8.07;;;6.43;;
20290;SDS011;10304;51.074;13.754;2023-11-19T06:03:35;8.90;;;7.03;;
20290;SDS011;10304;51.074;13.754;2023-11-19T06:06:03;7.97;;;6.25;;
20290;SDS011;10304;51.074;13.754;2023-11-19T06:08:31;7.40;;;6.15;;
20290;SDS011;10304;51.074;13.754;2023-11-19T06:10:59;8.48;;;6.43;;
20290;SDS011;10304;51.074;13.754;2023-11-19T06:13:28;7.78;;;6.40;;
20290;SDS011;10304;51.074;13.754;2023-11-19T06:15:57;7.38;;;6.03;;
20290;SDS011;10304;51.074;13.754;2023-11-19T06:18:25;8.68;;;5.30;;
20290;SDS011;10304;51.074;13.754;2023-11-19T06:20:52;5.57;;;4.95;;
20290;SDS011;10304;51.074;13.754;2023-11-19T06:23:19;6.80;;;5.30;;
20290;SDS011;10304;51.074;13.754;2023-11-19T06:25:46;6.50;;;5.75;;
20290;SDS011;10304;51.074;13.754;2023-11-19T06:28:13;7.57;;;5.07;;
20290;SDS011;10304;51.074;13.754;2023-11-19T06:30:40;7.00;;;5.50;;
20290;SDS011;10304;51.074;13.754;2023-11-19T06:33:08;5.88;;;5.13;;
20290;SDS011;10304;51.074;13.754;2023-11-19T06:35:35;7.05;;;4.80;;
20290;SDS011;10304;51.074;13.754;2023-11-19T06:38:03;5.57;;;4.80;;
20290;SDS011;10304;51.074;13.754;2023-11-19T06:40:33;5.15;;;4.40;;
20290;SDS011;10304;51.074;13.754;2023-11-19T06:43:02;5.55;;;4.22;;
20290;SDS011;10304;51.074;13.754;2023-11-19T06:45:30;4.70;;;4.10;;
20290;SDS011;10304;51.074;13.754;2023-11-19T06:48:00;5.80;;;4.25;;
20290;SDS011;10304;51.074;13.754;2023-11-19T06:50:30;5.00;;;4.07;;
20290;SDS011;10304;51.074;13.754;2023-11-19T06:52:58;4.28;;;3.88;;
20290;SDS011;10304;51.074;13.754;2023-11-19T06:55:26;4.95;;;3.72;;
20290;SDS011;10304;51.074;13.754;2023-11-19T06:57:53;4.15;;;3.75;;
20290;SDS011;10304;51.074;13.754;2023-11-19T07:00:20;3.83;;;3.15;;
20290;SDS011;10304;51.074;13.754;2023-11-19T07:02:48;3.50;;;3.20;;
20290;SDS011;10304;51.074;13.754;2023-11-19T07:05:16;4.75;;;3.25;;
20290;SDS011;10304;51.074;13.754;2023-11-19T07:07:43;4.55;;;3.53;;
20290;SDS011;10304;51.074;13.754;2023-11-19T07:10:12;3.22;;;2.75;;
20290;SDS011;10304;51.074;13.754;2023-11-19T07:12:39;3.92;;;2.72;;
20290;SDS011;10304;51.074;13.754;2023-11-19T07:15:06;3.25;;;2.95;;
20290;SDS011;10304;51.074;13.754;2023-11-19T07:17:33;4.20;;;2.72;;
20290;SDS011;10304;51.074;13.754;2023-11-19T07:20:01;3.08;;;2.53;;
20290;SDS011;10304;51.074;13.754;2023-11-19T07:22:28;3.88;;;2.70;;
20290;SDS011;10304;51.074;13.754;2023-11-19T07:24:56;2.97;;;2.40;;
20290;SDS011;10304;51.074;13.754;2023-11-19T07:27:23;2.67;;;2.47;;
20290;SDS011;10304;51.074;13.754;2023-11-19T07:29:50;2.95;;;2.42;;
20290;SDS011;10304;51.074;13.754;2023-11-19T07:32:18;3.85;;;2.60;;
20290;SDS011;10304;51.074;13.754;2023-11-19T07:34:45;3.05;;;2.53;;
20290;SDS011;10304;51.074;13.754;2023-11-19T07:37:12;3.42;;;2.72;;
20290;SDS011;10304;51.074;13.754;2023-11-19T07:39:39;3.00;;;2.70;;
20290;SDS011;10304;51.074;13.754;2023-11-19T07:42:08;2.55;;;2.35;;
20290;SDS011;10304;51.074;13.754;2023-11-19T07:44:36;3.10;;;2.72;;
20290;SDS011;10304;51.074;13.754;2023-11-19T07:47:03;2.92;;;2.53;;
20290;SDS011;10304;51.074;13.754;2023-11-19T07:49:30;3.08;;;2.60;;
20290;SDS011;10304;51.074;13.754;2023-11-19T07:51:58;2.90;;;2.60;;
20290;SDS011;10304;51.074;13.754;2023-11-19T07:54:25;2.67;;;2.38;;
20290;SDS011;10304;51.074;13.754;2023-11-19T07:56:52;3.10;;;2.70;;
20290;SDS011;10304;51.074;13.754;2023-11-19T07:59:19;3.30;;;2.75;;
20290;SDS011;10304;51.074;13.754;2023-11-19T08:01:46;2.92;;;2.63;;
20290;SDS011;10304;51.074;13.754;2023-11-19T08:04:13;2.50;;;2.30;;
20290;SDS011;10304;51.074;13.754;2023-11-19T08:06:40;3.08;;;2.75;;
20290;SDS011;10304;51.074;13.754;2023-11-19T08:09:07;3.30;;;2.92;;
20290;SDS011;10304;51.074;13.754;2023-11-19T08:11:43;4.10;;;2.92;;
20290;SDS011;10304;51.074;13.754;2023-11-19T08:14:11;3.00;;;2.70;;
20290;SDS011;10304;51.074;13.754;2023-11-19T08:16:39;2.83;;;2.58;;
20290;SDS011;10304;51.074;13.754;2023-11-19T08:19:06;4.00;;;2.90;;
20290;SDS011;10304;51.074;13.754;2023-11-19T08:21:33;3.30;;;3.00;;
20290;SDS011;10304;51.074;13.754;2023-11-19T08:24:00;3.85;;;3.47;;
20290;SDS011;10304;51.074;13.754;2023-11-19T08:26:27;5.32;;;3.90;;
20290;SDS011;10304;51.074;13.754;2023-11-19T08:28:54;5.03;;;4.53;;
20290;SDS011;10304;51.074;13.754;2023-11-19T08:31:20;4.30;;;3.88;;
20290;SDS011;10304;51.074;13.754;2023-11-19T08:33:47;5.95;;;4.13;;
20290;SDS011;10304;51.074;13.754;2023-11-19T08:36:15;5.90;;;4.30;;
20290;SDS011;10304;51.074;13.754;2023-11-19T08:38:43;4.63;;;4.22;;
20290;SDS011;10304;51.074;13.754;2023-11-19T08:41:10;5.80;;;4.95;;
20290;SDS011;10304;51.074;13.754;2023-11-19T08:43:37;4.95;;;4.07;;
20290;SDS011;10304;51.074;13.754;2023-11-19T08:46:14;4.88;;;4.13;;
20290;SDS011;10304;51.074;13.754;2023-11-19T08:48:47;5.75;;;4.55;;
20290;SDS011;10304;51.074;13.754;2023-11-19T08:51:24;4.38;;;3.70;;
20290;SDS011;10304;51.074;13.754;2023-11-19T08:54:00;15.55;;;10.15;;
20290;SDS011;10304;51.074;13.754;2023-11-19T08:56:35;15.07;;;5.43;;
20290;SDS011;10304;51.074;13.754;2023-11-19T08:59:06;7.63;;;5.57;;
20290;SDS011;10304;51.074;13.754;2023-11-19T09:01:46;6.53;;;3.92;;
20290;SDS011;10304;51.074;13.754;2023-11-19T09:04:41;5.80;;;3.63;;
20290;SDS011;10304;51.074;13.754;2023-11-19T09:07:23;5.28;;;2.50;;
20290;SDS011;10304;51.074;13.754;2023-11-19T09:09:56;2.30;;;1.75;;
20290;SDS011;10304;51.074;13.754;2023-11-19T09:12:24;4.90;;;2.83;;
20290;SDS011;10304;51.074;13.754;2023-11-19T09:14:50;2.72;;;2.10;;
20290;SDS011;10304;51.074;13.754;2023-11-19T09:17:17;5.07;;;2.33;;
20290;SDS011;10304;51.074;13.754;2023-11-19T09:19:44;5.68;;;4.10;;
20290;SDS011;10304;51.074;13.754;2023-11-19T09:22:12;3.75;;;3.35;;
20290;SDS011;10304;51.074;13.754;2023-11-19T09:24:39;3.50;;;2.95;;
20290;SDS011;10304;51.074;13.754;2023-11-19T09:27:08;11.32;;;6.72;;
20290;SDS011;10304;51.074;13.754;2023-11-19T09:29:37;17.70;;;11.45;;
20290;SDS011;10304;51.074;13.754;2023-11-19T09:32:11;14.82;;;8.55;;
20290;SDS011;10304;51.074;13.754;2023-11-19T09:34:40;5.03;;;3.80;;
20290;SDS011;10304;51.074;13.754;2023-11-19T09:37:12;4.55;;;2.83;;
20290;SDS011;10304;51.074;13.754;2023-11-19T09:39:51;3.33;;;2.40;;
20290;SDS011;10304;51.074;13.754;2023-11-19T09:42:23;1.85;;;1.20;;
20290;SDS011;10304;51.074;13.754;2023-11-19T09:45:16;2.97;;;1.70;;
20290;SDS011;10304;51.074;13.754;2023-11-19T09:47:53;4.25;;;1.38;;
20290;SDS011;10304;51.074;13.754;2023-11-19T09:50:29;2.58;;;1.33;;
20290;SDS011;10304;51.074;13.754;2023-11-19T09:53:04;3.25;;;1.10;;
20290;SDS011;10304;51.074;13.754;2023-11-19T09:55:31;2.55;;;0.90;;
20290;SDS011;10304;51.074;13.754;2023-11-19T09:57:58;1.67;;;0.90;;
20290;SDS011;10304;51.074;13.754;2023-11-19T10:00:28;3.65;;;0.80;;
20290;SDS011;10304;51.074;13.754;2023-11-19T10:02:56;3.53;;;1.23;;
20290;SDS011;10304;51.074;13.754;2023-11-19T10:05:23;2.92;;;0.80;;
20290;SDS011;10304;51.074;13.754;2023-11-19T10:07:52;2.20;;;1.00;;
20290;SDS011;10304;51.074;13.754;2023-11-19T10:10:22;4.15;;;1.20;;
20290;SDS011;10304;51.074;13.754;2023-11-19T10:12:52;1.70;;;0.88;;
20290;SDS011;10304;51.074;13.754;2023-11-19T10:15:23;2.47;;;1.00;;
20290;SDS011;10304;51.074;13.754;2023-11-19T10:17:56;2.83;;;0.90;;
20290;SDS011;10304;51.074;13.754;2023-11-19T10:20:24;2.08;;;0.95;;
20290;SDS011;10304;51.074;13.754;2023-11-19T10:22:52;2.58;;;0.80;;
20290;SDS011;10304;51.074;13.754;2023-11-19T10:27:52;3.28;;;0.88;;
20290;SDS011;10304;51.074;13.754;2023-11-19T10:30:20;2.67;;;0.80;;
20290;SDS011;10304;51.074;13.754;2023-11-19T10:33:05;1.90;;;0.95;;
20290;SDS011;10304;51.074;13.754;2023-11-19T10:35:50;2.75;;;1.20;;
20290;SDS011;10304;51.074;13.754;2023-11-19T10:38:27;1.08;;;0.70;;
20290;SDS011;10304;51.074;13.754;2023-11-19T10:40:55;2.63;;;0.70;;
20290;SDS011;10304;51.074;13.754;2023-11-19T10:43:22;2.33;;;0.90;;
20290;SDS011;10304;51.074;13.754;2023-11-19T10:45:49;3.50;;;1.00;;
20290;SDS011;10304;51.074;13.754;2023-11-19T10:48:16;1.85;;;0.90;;
20290;SDS011;10304;51.074;13.754;2023-11-19T10:50:45;3.45;;;0.80;;
20290;SDS011;10304;51.074;13.754;2023-11-19T10:53:16;1.77;;;0.75;;
20290;SDS011;10304;51.074;13.754;2023-11-19T10:55:47;2.35;;;0.80;;
20290;SDS011;10304;51.074;13.754;2023-11-19T10:58:15;3.08;;;1.17;;
20290;SDS011;10304;51.074;13.754;2023-11-19T11:03:21;2.83;;;0.85;;
20290;SDS011;10304;51.074;13.754;2023-11-19T11:05:51;2.80;;;0.93;;
20290;SDS011;10304;51.074;13.754;2023-11-19T11:08:19;1.95;;;0.65;;
20290;SDS011;10304;51.074;13.754;2023-11-19T11:10:56;2.35;;;0.82;;
20290;SDS011;10304;51.074;13.754;2023-11-19T11:13:24;1.77;;;0.98;;
20290;SDS011;10304;51.074;13.754;2023-11-19T11:15:56;2.70;;;0.70;;
20290;SDS011;10304;51.074;13.754;2023-11-19T11:18:27;3.45;;;0.80;;
20290;SDS011;10304;51.074;13.754;2023-11-19T11:20:56;2.20;;;0.88;;
20290;SDS011;10304;51.074;13.754;2023-11-19T11:29:14;1.23;;;0.73;;
20290;SDS011;10304;51.074;13.754;2023-11-19T11:31:58;0.80;;;0.70;;
20290;SDS011;10304;51.074;13.754;2023-11-19T11:37:27;1.95;;;0.75;;
20290;SDS011;10304;51.074;13.754;2023-11-19T11:39:59;1.80;;;0.70;;
20290;SDS011;10304;51.074;13.754;2023-11-19T11:42:32;3.10;;;0.85;;
20290;SDS011;10304;51.074;13.754;2023-11-19T11:45:04;2.70;;;1.00;;
20290;SDS011;10304;51.074;13.754;2023-11-19T11:50:16;4.20;;;1.08;;
20290;SDS011;10304;51.074;13.754;2023-11-19T11:55:24;5.60;;;1.35;;
20290;SDS011;10304;51.074;13.754;2023-11-19T11:57:51;2.80;;;0.85;;
20290;SDS011;10304;51.074;13.754;2023-11-19T12:00:37;5.78;;;1.30;;
20290;SDS011;10304;51.074;13.754;2023-11-19T12:03:07;2.35;;;1.00;;
20290;SDS011;10304;51.074;13.754;2023-11-19T12:05:38;3.55;;;1.20;;
20290;SDS011;10304;51.074;13.754;2023-11-19T12:08:14;4.82;;;1.25;;
20290;SDS011;10304;51.074;13.754;2023-11-19T12:10:49;3.60;;;1.40;;
20290;SDS011;10304;51.074;13.754;2023-11-19T12:13:18;2.90;;;1.17;;
20290;SDS011;10304;51.074;13.754;2023-11-19T12:18:26;4.45;;;1.15;;
20290;SDS011;10304;51.074;13.754;2023-11-19T12:20:55;4.60;;;1.50;;
20290;SDS011;10304;51.074;13.754;2023-11-19T12:23:22;5.25;;;1.60;;
20290;SDS011;10304;51.074;13.754;2023-11-19T12:25:50;5.90;;;1.45;;
20290;SDS011;10304;51.074;13.754;2023-11-19T12:28:18;7.22;;;1.55;;
20290;SDS011;10304;51.074;13.754;2023-11-19T12:30:45;6.60;;;2.25;;
20290;SDS011;10304;51.074;13.754;2023-11-19T12:33:14;6.82;;;1.83;;
20290;SDS011;10304;51.074;13.754;2023-11-19T12:35:41;6.13;;;1.58;;
20290;SDS011;10304;51.074;13.754;2023-11-19T12:38:19;6.50;;;2.03;;
20290;SDS011;10304;51.074;13.754;2023-11-19T12:41:03;8.55;;;4.63;;
20290;SDS011;10304;51.074;13.754;2023-11-19T12:43:31;6.32;;;1.73;;
20290;SDS011;10304;51.074;13.754;2023-11-19T12:48:50;6.35;;;1.92;;
20290;SDS011;10304;51.074;13.754;2023-11-19T12:51:18;5.97;;;2.03;;
20290;SDS011;10304;51.074;13.754;2023-11-19T12:53:55;7.53;;;2.20;;
20290;SDS011;10304;51.074;13.754;2023-11-19T12:56:25;6.80;;;1.90;;
20290;SDS011;10304;51.074;13.754;2023-11-19T12:58:52;8.35;;;2.20;;
20290;SDS011;10304;51.074;13.754;2023-11-19T13:01:20;7.50;;;2.33;;
20290;SDS011;10304;51.074;13.754;2023-11-19T13:03:48;6.68;;;1.90;;
20290;SDS011;10304;51.074;13.754;2023-11-19T13:06:17;7.30;;;2.10;;
20290;SDS011;10304;51.074;13.754;2023-11-19T13:08:48;6.20;;;2.22;;
20290;SDS011;10304;51.074;13.754;2023-11-19T13:11:35;4.82;;;1.77;;
20290;SDS011;10304;51.074;13.754;2023-11-19T13:14:04;5.70;;;2.03;;
20290;SDS011;10304;51.074;13.754;2023-11-19T13:16:32;6.25;;;2.10;;
20290;SDS011;10304;51.074;13.754;2023-11-19T13:19:00;3.83;;;2.30;;
20290;SDS011;10304;51.074;13.754;2023-11-19T13:21:27;5.18;;;2.42;;
20290;SDS011;10304;51.074;13.754;2023-11-19T13:23:56;7.05;;;2.50;;
20290;SDS011;10304;51.074;13.754;2023-11-19T13:26:23;8.00;;;2.28;;
20290;SDS011;10304;51.074;13.754;2023-11-19T13:28:50;6.97;;;2.50;;
20290;SDS011;10304;51.074;13.754;2023-11-19T13:31:18;6.50;;;2.20;;
20290;SDS011;10304;51.074;13.754;2023-11-19T13:33:45;7.93;;;2.78;;
20290;SDS011;10304;51.074;13.754;2023-11-19T13:36:12;10.15;;;2.90;;
20290;SDS011;10304;51.074;13.754;2023-11-19T13:38:42;10.18;;;2.42;;
20290;SDS011;10304;51.074;13.754;2023-11-19T13:41:13;8.88;;;2.50;;
20290;SDS011;10304;51.074;13.754;2023-11-19T13:43:43;10.27;;;2.75;;
20290;SDS011;10304;51.074;13.754;2023-11-19T13:46:48;10.05;;;2.95;;
20290;SDS011;10304;51.074;13.754;2023-11-19T13:49:51;9.85;;;3.03;;
20290;SDS011;10304;51.074;13.754;2023-11-19T13:52:19;8.70;;;2.50;;
20290;SDS011;10304;51.074;13.754;2023-11-19T13:54:46;10.50;;;2.63;;
20290;SDS011;10304;51.074;13.754;2023-11-19T13:57:13;11.00;;;3.25;;
20290;SDS011;10304;51.074;13.754;2023-11-19T13:59:40;11.52;;;2.95;;
20290;SDS011;10304;51.074;13.754;2023-11-19T14:02:08;10.85;;;2.88;;
20290;SDS011;10304;51.074;13.754;2023-11-19T14:04:35;11.85;;;2.80;;
20290;SDS011;10304;51.074;13.754;2023-11-19T14:07:01;8.48;;;2.42;;
20290;SDS011;10304;51.074;13.754;2023-11-19T14:09:29;6.88;;;2.50;;
20290;SDS011;10304;51.074;13.754;2023-11-19T14:11:56;10.15;;;2.90;;
20290;SDS011;10304;51.074;13.754;2023-11-19T14:14:23;9.60;;;2.85;;
20290;SDS011;10304;51.074;13.754;2023-11-19T14:16:50;13.18;;;3.10;;
20290;SDS011;10304;51.074;13.754;2023-11-19T14:19:17;7.95;;;2.60;;
20290;SDS011;10304;51.074;13.754;2023-11-19T14:21:44;9.75;;;2.80;;
20290;SDS011;10304;51.074;13.754;2023-11-19T14:24:13;12.98;;;2.85;;
20290;SDS011;10304;51.074;13.754;2023-11-19T14:26:40;13.20;;;3.38;;
20290;SDS011;10304;51.074;13.754;2023-11-19T14:29:07;8.50;;;2.35;;
20290;SDS011;10304;51.074;13.754;2023-11-19T14:31:34;8.60;;;2.63;;
20290;SDS011;10304;51.074;13.754;2023-11-19T14:34:02;9.65;;;2.90;;
20290;SDS011;10304;51.074;13.754;2023-11-19T14:36:29;10.38;;;2.85;;
20290;SDS011;10304;51.074;13.754;2023-11-19T14:38:56;11.88;;;3.10;;
20290;SDS011;10304;51.074;13.754;2023-11-19T14:41:25;9.82;;;2.40;;
20290;SDS011;10304;51.074;13.754;2023-11-19T14:43:52;8.77;;;2.65;;
20290;SDS011;10304;51.074;13.754;2023-11-19T14:46:19;11.32;;;2.42;;
20290;SDS011;10304;51.074;13.754;2023-11-19T14:48:46;7.97;;;2.30;;
20290;SDS011;10304;51.074;13.754;2023-11-19T14:51:14;8.65;;;2.30;;
20290;SDS011;10304;51.074;13.754;2023-11-19T14:53:42;9.48;;;2.75;;
20290;SDS011;10304;51.074;13.754;2023-11-19T14:56:12;15.13;;;2.40;;
20290;SDS011;10304;51.074;13.754;2023-11-19T14:58:40;9.57;;;2.63;;
20290;SDS011;10304;51.074;13.754;2023-11-19T15:01:11;11.73;;;3.05;;
20290;SDS011;10304;51.074;13.754;2023-11-19T15:03:38;10.13;;;2.63;;
20290;SDS011;10304;51.074;13.754;2023-11-19T15:06:09;10.07;;;2.78;;
20290;SDS011;10304;51.074;13.754;2023-11-19T15:08:37;8.45;;;2.35;;
20290;SDS011;10304;51.074;13.754;2023-11-19T15:11:04;11.63;;;2.38;;